Fredericksbg, Ohio
Current Conditions -  °F | °C
As of 3:53 PM on Saturday 22 Nov 2014 (Local Time) from KPHD Reporting Station
Overcast Overcast  
Wind Chill: 43°   Ceiling: 5500
Heat Index: 43°   Visibility: 10mi
Dew Point: 32°   Wind: 3mph
Humidity: 65%   Direction: 130°SE
Pressure: 30.15"   Gusts: NA
Location:  40.6693°N, 81.8428°W
Report Text: KPHD 222053Z AUTO 13003KT 10SM OVC055 06/00 A3015 RMK AO2 SLP218 T00610000 56021
Loading
Personal Weather Stations






























Interactive Weather Map New forecast layout! Learn more

10-Day Weather Forecast

Advertisements
Track Severe Weather on mobile